Sasebo, Japan
Current Conditions -  °F | °C
As of 4:00 PM on Sunday 23 Nov 2014 (Local Time) from RJFU Reporting Station
Clear Clear  
Wind Chill: 66°   Ceiling: Unl
Heat Index: 66°   Visibility: 6mi
Dew Point: 52°   Wind: 1mph
Humidity: 60%   Direction: NA
Pressure: 30.12"   Gusts: NA
Location:  33.16°N, 129.72°E
Report Text: RJFU 230700Z VRB01KT CAVOK 19/11 Q1020
Loading
Personal Weather Stations






























Interactive Weather Map New forecast layout! Learn more

10-Day Weather Forecast

Advertisements
Track Severe Weather on mobile